sensor_id;sensor_type;location;lat;lon;timestamp;pressure;altitude;pressure_sealevel;temperature;humidity
8061;BME280;4073;42.626;25.386;2022-07-04T00:00:04;97423.66;;;19.93;71.54
8061;BME280;4073;42.626;25.386;2022-07-04T00:02:29;97435.28;;;19.94;72.20
8061;BME280;4073;42.626;25.386;2022-07-04T00:04:55;97439.31;;;19.88;73.81
8061;BME280;4073;42.626;25.386;2022-07-04T00:07:20;97438.66;;;19.91;74.45
8061;BME280;4073;42.626;25.386;2022-07-04T00:09:46;97437.22;;;19.93;74.86
8061;BME280;4073;42.626;25.386;2022-07-04T00:12:11;97432.72;;;19.97;75.76
8061;BME280;4073;42.626;25.386;2022-07-04T00:14:37;97432.41;;;19.99;78.68
8061;BME280;4073;42.626;25.386;2022-07-04T00:17:02;97429.72;;;19.90;79.93
8061;BME280;4073;42.626;25.386;2022-07-04T00:19:28;97445.31;;;20.02;80.81
8061;BME280;4073;42.626;25.386;2022-07-04T00:21:53;97424.75;;;19.92;80.89
8061;BME280;4073;42.626;25.386;2022-07-04T00:24:19;97429.50;;;20.04;81.18
8061;BME280;4073;42.626;25.386;2022-07-04T00:26:44;97425.69;;;20.05;81.35
8061;BME280;4073;42.626;25.386;2022-07-04T00:29:10;97414.81;;;20.05;81.63
8061;BME280;4073;42.626;25.386;2022-07-04T00:31:35;97424.44;;;19.94;81.57
8061;BME280;4073;42.626;25.386;2022-07-04T00:34:01;97425.88;;;19.91;81.05
8061;BME280;4073;42.626;25.386;2022-07-04T00:36:27;97420.31;;;19.88;80.08
8061;BME280;4073;42.626;25.386;2022-07-04T00:38:52;97413.78;;;19.80;80.15
8061;BME280;4073;42.626;25.386;2022-07-04T00:41:18;97408.53;;;19.75;80.59
8061;BME280;4073;42.626;25.386;2022-07-04T00:43:44;97405.69;;;19.72;80.85
8061;BME280;4073;42.626;25.386;2022-07-04T00:46:24;97413.81;;;19.72;81.65
8061;BME280;4073;42.626;25.386;2022-07-04T00:48:49;97405.97;;;19.79;80.94
8061;BME280;4073;42.626;25.386;2022-07-04T00:51:15;97397.53;;;19.80;81.84
8061;BME280;4073;42.626;25.386;2022-07-04T00:53:40;97405.97;;;19.79;82.89
8061;BME280;4073;42.626;25.386;2022-07-04T00:56:06;97395.44;;;19.77;85.71
8061;BME280;4073;42.626;25.386;2022-07-04T00:58:32;97399.78;;;19.70;88.05
8061;BME280;4073;42.626;25.386;2022-07-04T01:00:58;97398.53;;;19.59;90.97
8061;BME280;4073;42.626;25.386;2022-07-04T01:03:23;97399.69;;;19.49;92.32
8061;BME280;4073;42.626;25.386;2022-07-04T01:05:49;97393.16;;;19.42;93.21
8061;BME280;4073;42.626;25.386;2022-07-04T01:08:15;97395.25;;;19.36;94.30
8061;BME280;4073;42.626;25.386;2022-07-04T01:10:41;97394.94;;;19.29;94.66
8061;BME280;4073;42.626;25.386;2022-07-04T01:13:06;97392.56;;;19.28;94.85
8061;BME280;4073;42.626;25.386;2022-07-04T01:15:32;97386.16;;;19.24;94.97
8061;BME280;4073;42.626;25.386;2022-07-04T01:17:57;97391.91;;;19.22;95.56
8061;BME280;4073;42.626;25.386;2022-07-04T01:20:23;97379.47;;;19.21;95.66
8061;BME280;4073;42.626;25.386;2022-07-04T01:22:49;97372.44;;;19.20;95.87
8061;BME280;4073;42.626;25.386;2022-07-04T01:25:14;97374.53;;;19.15;96.26
8061;BME280;4073;42.626;25.386;2022-07-04T01:27:40;97371.81;;;19.06;96.63
8061;BME280;4073;42.626;25.386;2022-07-04T01:30:07;97381.41;;;19.04;96.67
8061;BME280;4073;42.626;25.386;2022-07-04T01:32:33;97384.56;;;18.97;95.55
8061;BME280;4073;42.626;25.386;2022-07-04T01:34:58;97379.16;;;18.89;95.03
8061;BME280;4073;42.626;25.386;2022-07-04T01:37:24;97386.84;;;18.87;93.50
8061;BME280;4073;42.626;25.386;2022-07-04T01:39:49;97373.75;;;18.72;93.53
8061;BME280;4073;42.626;25.386;2022-07-04T01:42:15;97384.59;;;18.72;93.38
8061;BME280;4073;42.626;25.386;2022-07-04T01:44:40;97387.47;;;18.67;92.27
8061;BME280;4073;42.626;25.386;2022-07-04T01:47:05;97379.97;;;18.64;90.95
8061;BME280;4073;42.626;25.386;2022-07-04T01:49:31;97391.28;;;18.49;90.60
8061;BME280;4073;42.626;25.386;2022-07-04T01:51:56;97377.41;;;18.42;91.50
8061;BME280;4073;42.626;25.386;2022-07-04T01:54:22;97381.66;;;18.34;91.97
8061;BME280;4073;42.626;25.386;2022-07-04T01:56:50;97387.50;;;18.28;92.60
8061;BME280;4073;42.626;25.386;2022-07-04T01:59:15;97378.44;;;18.24;92.93
8061;BME280;4073;42.626;25.386;2022-07-04T02:01:41;97379.03;;;18.12;94.79
8061;BME280;4073;42.626;25.386;2022-07-04T02:04:07;97372.69;;;18.17;95.26
8061;BME280;4073;42.626;25.386;2022-07-04T02:06:33;97380.69;;;18.30;94.30
8061;BME280;4073;42.626;25.386;2022-07-04T02:08:59;97370.50;;;18.27;95.04
8061;BME280;4073;42.626;25.386;2022-07-04T02:11:44;97379.25;;;18.24;95.88
8061;BME280;4073;42.626;25.386;2022-07-04T02:14:30;97385.56;;;18.11;96.93
8061;BME280;4073;42.626;25.386;2022-07-04T02:16:56;97381.47;;;18.22;96.26
8061;BME280;4073;42.626;25.386;2022-07-04T02:19:21;97387.38;;;18.24;95.91
8061;BME280;4073;42.626;25.386;2022-07-04T02:21:47;97386.56;;;18.24;96.35
8061;BME280;4073;42.626;25.386;2022-07-04T02:24:12;97388.81;;;18.22;95.83
8061;BME280;4073;42.626;25.386;2022-07-04T02:26:38;97395.63;;;18.19;95.20
8061;BME280;4073;42.626;25.386;2022-07-04T02:29:03;97397.38;;;18.24;94.49
8061;BME280;4073;42.626;25.386;2022-07-04T02:31:29;97400.41;;;18.22;95.10
8061;BME280;4073;42.626;25.386;2022-07-04T02:33:54;97390.38;;;18.23;95.87
8061;BME280;4073;42.626;25.386;2022-07-04T02:36:19;97390.50;;;18.18;96.66
8061;BME280;4073;42.626;25.386;2022-07-04T02:38:45;97388.81;;;18.22;97.53
8061;BME280;4073;42.626;25.386;2022-07-04T02:41:10;97395.63;;;18.19;98.83
8061;BME280;4073;42.626;25.386;2022-07-04T02:43:36;97393.22;;;18.18;99.36
8061;BME280;4073;42.626;25.386;2022-07-04T02:46:01;97394.78;;;18.02;100.00
8061;BME280;4073;42.626;25.386;2022-07-04T02:48:27;97398.47;;;18.06;100.00
8061;BME280;4073;42.626;25.386;2022-07-04T02:50:52;97397.03;;;18.08;100.00
8061;BME280;4073;42.626;25.386;2022-07-04T02:53:17;97398.94;;;18.08;100.00
8061;BME280;4073;42.626;25.386;2022-07-04T02:55:43;97400.19;;;18.02;100.00
8061;BME280;4073;42.626;25.386;2022-07-04T02:58:08;97396.38;;;18.02;100.00
8061;BME280;4073;42.626;25.386;2022-07-04T03:00:34;97395.56;;;18.02;100.00
8061;BME280;4073;42.626;25.386;2022-07-04T03:02:59;97397.19;;;18.03;100.00
8061;BME280;4073;42.626;25.386;2022-07-04T03:05:25;97394.00;;;18.10;99.56
8061;BME280;4073;42.626;25.386;2022-07-04T03:07:50;97389.13;;;18.20;98.83
8061;BME280;4073;42.626;25.386;2022-07-04T03:10:15;97392.94;;;18.28;98.37
8061;BME280;4073;42.626;25.386;2022-07-04T03:12:41;97399.34;;;18.32;97.36
8061;BME280;4073;42.626;25.386;2022-07-04T03:15:06;97396.75;;;18.27;96.32
8061;BME280;4073;42.626;25.386;2022-07-04T03:17:32;97395.50;;;18.24;96.44
8061;BME280;4073;42.626;25.386;2022-07-04T03:19:58;97397.22;;;18.20;96.31
8061;BME280;4073;42.626;25.386;2022-07-04T03:22:23;97395.75;;;18.06;96.92
8061;BME280;4073;42.626;25.386;2022-07-04T03:24:48;97390.63;;;17.95;97.13
8061;BME280;4073;42.626;25.386;2022-07-04T03:27:14;97402.88;;;17.93;98.14
8061;BME280;4073;42.626;25.386;2022-07-04T03:29:40;97403.84;;;17.97;97.43
8061;BME280;4073;42.626;25.386;2022-07-04T03:32:05;97404.97;;;17.96;96.98
8061;BME280;4073;42.626;25.386;2022-07-04T03:34:31;97409.09;;;18.02;96.64
8061;BME280;4073;42.626;25.386;2022-07-04T03:36:56;97397.19;;;18.03;96.68
8061;BME280;4073;42.626;25.386;2022-07-04T03:39:22;97410.44;;;18.13;96.61
8061;BME280;4073;42.626;25.386;2022-07-04T03:41:48;97401.72;;;18.25;96.21
8061;BME280;4073;42.626;25.386;2022-07-04T03:44:13;97400.59;;;18.34;95.76
8061;BME280;4073;42.626;25.386;2022-07-04T03:46:39;97397.13;;;18.42;95.56
8061;BME280;4073;42.626;25.386;2022-07-04T03:49:04;97393.34;;;18.43;95.88
8061;BME280;4073;42.626;25.386;2022-07-04T03:51:30;97397.94;;;18.43;96.63
8061;BME280;4073;42.626;25.386;2022-07-04T03:53:56;97395.56;;;18.50;96.92
8061;BME280;4073;42.626;25.386;2022-07-04T03:56:21;97391.91;;;18.46;96.94
8061;BME280;4073;42.626;25.386;2022-07-04T03:58:47;97397.16;;;18.51;96.57
8061;BME280;4073;42.626;25.386;2022-07-04T04:01:18;97400.03;;;18.54;96.52
8061;BME280;4073;42.626;25.386;2022-07-04T04:03:44;97403.38;;;18.60;96.24
8061;BME280;4073;42.626;25.386;2022-07-04T04:06:28;97407.69;;;18.69;96.14
8061;BME280;4073;42.626;25.386;2022-07-04T04:08:54;97415.50;;;18.79;95.90
8061;BME280;4073;42.626;25.386;2022-07-04T04:11:19;97408.50;;;18.87;95.34
8061;BME280;4073;42.626;25.386;2022-07-04T04:13:45;97406.75;;;18.82;96.21
8061;BME280;4073;42.626;25.386;2022-07-04T04:16:10;97401.97;;;18.88;96.07
8061;BME280;4073;42.626;25.386;2022-07-04T04:18:36;97401.81;;;19.01;95.57
8061;BME280;4073;42.626;25.386;2022-07-04T04:21:02;97403.38;;;19.11;96.00
8061;BME280;4073;42.626;25.386;2022-07-04T04:23:28;97415.69;;;19.25;95.68
8061;BME280;4073;42.626;25.386;2022-07-04T04:25:53;97407.34;;;19.39;95.32
8061;BME280;4073;42.626;25.386;2022-07-04T04:28:19;97415.78;;;19.54;94.82
8061;BME280;4073;42.626;25.386;2022-07-04T04:30:44;97426.44;;;19.68;94.39
8061;BME280;4073;42.626;25.386;2022-07-04T04:33:10;97417.44;;;19.84;93.56
8061;BME280;4073;42.626;25.386;2022-07-04T04:35:35;97412.91;;;19.97;93.53
8061;BME280;4073;42.626;25.386;2022-07-04T04:38:01;97411.28;;;20.13;91.27
8061;BME280;4073;42.626;25.386;2022-07-04T04:40:26;97417.00;;;20.20;89.29
8061;BME280;4073;42.626;25.386;2022-07-04T04:42:52;97407.56;;;20.26;88.54
8061;BME280;4073;42.626;25.386;2022-07-04T04:45:17;97422.34;;;20.37;88.16
8061;BME280;4073;42.626;25.386;2022-07-04T04:47:42;97413.38;;;20.36;87.72
8061;BME280;4073;42.626;25.386;2022-07-04T04:50:09;97409.69;;;20.41;87.54
8061;BME280;4073;42.626;25.386;2022-07-04T04:52:42;97410.34;;;20.38;87.80
8061;BME280;4073;42.626;25.386;2022-07-04T04:55:08;97418.31;;;20.43;87.62
8061;BME280;4073;42.626;25.386;2022-07-04T04:57:34;97414.09;;;20.54;87.65
8061;BME280;4073;42.626;25.386;2022-07-04T05:00:00;97419.16;;;20.64;86.80
8061;BME280;4073;42.626;25.386;2022-07-04T05:02:26;97418.75;;;20.74;85.78
8061;BME280;4073;42.626;25.386;2022-07-04T05:04:52;97419.50;;;20.83;85.20
8061;BME280;4073;42.626;25.386;2022-07-04T05:07:18;97414.31;;;20.90;85.52
8061;BME280;4073;42.626;25.386;2022-07-04T05:09:43;97404.66;;;21.01;85.56
8061;BME280;4073;42.626;25.386;2022-07-04T05:12:09;97414.91;;;21.16;84.20
8061;BME280;4073;42.626;25.386;2022-07-04T05:14:35;97412.44;;;21.23;84.30
8061;BME280;4073;42.626;25.386;2022-07-04T05:17:00;97407.41;;;21.34;84.08
8061;BME280;4073;42.626;25.386;2022-07-04T05:19:25;97415.28;;;21.47;82.76
8061;BME280;4073;42.626;25.386;2022-07-04T05:21:51;97401.03;;;21.62;82.33
8061;BME280;4073;42.626;25.386;2022-07-04T05:24:16;97406.31;;;21.79;81.75
8061;BME280;4073;42.626;25.386;2022-07-04T05:26:42;97406.69;;;21.90;81.69
8061;BME280;4073;42.626;25.386;2022-07-04T05:29:07;97401.03;;;22.07;79.00
8061;BME280;4073;42.626;25.386;2022-07-04T05:31:33;97408.25;;;22.27;77.63
8061;BME280;4073;42.626;25.386;2022-07-04T05:33:59;97412.78;;;22.47;75.94
8061;BME280;4073;42.626;25.386;2022-07-04T05:36:26;97408.06;;;22.68;75.13
8061;BME280;4073;42.626;25.386;2022-07-04T05:38:51;97408.56;;;22.86;75.15
8061;BME280;4073;42.626;25.386;2022-07-04T05:41:17;97404.88;;;23.06;73.90
8061;BME280;4073;42.626;25.386;2022-07-04T05:43:43;97398.34;;;23.22;72.73
8061;BME280;4073;42.626;25.386;2022-07-04T05:46:08;97397.38;;;23.42;71.97
8061;BME280;4073;42.626;25.386;2022-07-04T05:48:34;97403.22;;;23.56;70.59
8061;BME280;4073;42.626;25.386;2022-07-04T05:50:59;97411.88;;;23.74;69.95
8061;BME280;4073;42.626;25.386;2022-07-04T05:53:25;97406.53;;;23.93;67.77
8061;BME280;4073;42.626;25.386;2022-07-04T05:55:51;97407.72;;;24.07;67.39
8061;BME280;4073;42.626;25.386;2022-07-04T05:58:16;97404.97;;;24.23;64.94
8061;BME280;4073;42.626;25.386;2022-07-04T06:00:42;97408.97;;;24.44;64.05
8061;BME280;4073;42.626;25.386;2022-07-04T06:03:07;97411.97;;;24.70;63.21
8061;BME280;4073;42.626;25.386;2022-07-04T06:05:33;97400.06;;;24.97;62.54
8061;BME280;4073;42.626;25.386;2022-07-04T06:07:59;97403.72;;;25.24;61.62
8061;BME280;4073;42.626;25.386;2022-07-04T06:10:25;97395.19;;;25.45;60.60
8061;BME280;4073;42.626;25.386;2022-07-04T06:12:50;97391.91;;;25.58;59.99
8061;BME280;4073;42.626;25.386;2022-07-04T06:15:16;97404.00;;;25.76;59.56
8061;BME280;4073;42.626;25.386;2022-07-04T06:17:42;97381.03;;;26.03;58.13
8061;BME280;4073;42.626;25.386;2022-07-04T06:20:08;97384.50;;;26.26;57.12
8061;BME280;4073;42.626;25.386;2022-07-04T06:22:45;97372.63;;;26.41;56.49
8061;BME280;4073;42.626;25.386;2022-07-04T06:25:13;97372.03;;;26.55;56.08
8061;BME280;4073;42.626;25.386;2022-07-04T06:27:40;97377.09;;;26.79;55.43
8061;BME280;4073;42.626;25.386;2022-07-04T06:30:06;97378.16;;;26.97;55.07
8061;BME280;4073;42.626;25.386;2022-07-04T06:32:41;97382.69;;;27.15;53.97
8061;BME280;4073;42.626;25.386;2022-07-04T06:35:07;97378.28;;;27.37;53.97
8061;BME280;4073;42.626;25.386;2022-07-04T06:37:51;97373.47;;;27.67;52.92
8061;BME280;4073;42.626;25.386;2022-07-04T06:40:16;97381.94;;;27.85;52.72
8061;BME280;4073;42.626;25.386;2022-07-04T06:42:42;97373.47;;;28.04;52.20
8061;BME280;4073;42.626;25.386;2022-07-04T06:45:08;97379.09;;;28.18;51.35
8061;BME280;4073;42.626;25.386;2022-07-04T06:47:34;97378.03;;;28.33;51.06
8061;BME280;4073;42.626;25.386;2022-07-04T06:49:59;97379.31;;;28.46;51.25
8061;BME280;4073;42.626;25.386;2022-07-04T06:52:24;97376.75;;;28.70;50.20
8061;BME280;4073;42.626;25.386;2022-07-04T06:54:50;97374.06;;;28.84;48.75
8061;BME280;4073;42.626;25.386;2022-07-04T06:57:15;97366.31;;;29.04;49.02
8061;BME280;4073;42.626;25.386;2022-07-04T06:59:41;97373.53;;;29.36;48.58
8061;BME280;4073;42.626;25.386;2022-07-04T07:02:06;97371.28;;;29.63;47.46
8061;BME280;4073;42.626;25.386;2022-07-04T07:04:31;97355.53;;;29.60;46.08
8061;BME280;4073;42.626;25.386;2022-07-04T07:06:57;97366.97;;;29.69;47.25
8061;BME280;4073;42.626;25.386;2022-07-04T07:09:22;97361.06;;;29.70;47.26
8061;BME280;4073;42.626;25.386;2022-07-04T07:11:48;97360.31;;;29.84;47.87
8061;BME280;4073;42.626;25.386;2022-07-04T07:14:13;97368.19;;;30.03;47.16
8061;BME280;4073;42.626;25.386;2022-07-04T07:16:39;97354.44;;;30.28;46.90
8061;BME280;4073;42.626;25.386;2022-07-04T07:19:04;97350.09;;;30.30;45.12
8061;BME280;4073;42.626;25.386;2022-07-04T07:21:30;97352.47;;;30.28;43.85
8061;BME280;4073;42.626;25.386;2022-07-04T07:23:55;97347.31;;;30.37;43.34
8061;BME280;4073;42.626;25.386;2022-07-04T07:26:21;97346.50;;;30.47;41.63
8061;BME280;4073;42.626;25.386;2022-07-04T07:28:46;97343.34;;;30.63;40.49
8061;BME280;4073;42.626;25.386;2022-07-04T07:31:12;97340.94;;;30.89;41.84
8061;BME280;4073;42.626;25.386;2022-07-04T07:33:37;97340.47;;;31.12;37.61
8061;BME280;4073;42.626;25.386;2022-07-04T07:36:03;97332.22;;;30.98;37.93
8061;BME280;4073;42.626;25.386;2022-07-04T07:38:29;97331.44;;;31.01;37.87
8061;BME280;4073;42.626;25.386;2022-07-04T07:40:55;97335.66;;;31.33;37.11
8061;BME280;4073;42.626;25.386;2022-07-04T07:43:20;97341.00;;;31.58;35.57
8061;BME280;4073;42.626;25.386;2022-07-04T07:45:46;97336.28;;;31.58;35.53
8061;BME280;4073;42.626;25.386;2022-07-04T07:48:11;97338.19;;;31.68;36.11
8061;BME280;4073;42.626;25.386;2022-07-04T07:50:37;97320.03;;;31.67;35.14
8061;BME280;4073;42.626;25.386;2022-07-04T07:53:02;97328.84;;;32.07;35.65
8061;BME280;4073;42.626;25.386;2022-07-04T07:55:28;97329.09;;;32.26;35.69
8061;BME280;4073;42.626;25.386;2022-07-04T07:57:53;97327.50;;;32.29;34.57
8061;BME280;4073;42.626;25.386;2022-07-04T08:00:19;97310.78;;;32.39;34.72
8061;BME280;4073;42.626;25.386;2022-07-04T08:02:44;97332.25;;;32.69;34.26
8061;BME280;4073;42.626;25.386;2022-07-04T08:05:28;97325.31;;;32.87;33.21
8061;BME280;4073;42.626;25.386;2022-07-04T08:07:54;97327.50;;;33.06;33.25
8061;BME280;4073;42.626;25.386;2022-07-04T08:10:20;97333.31;;;33.15;32.42
8061;BME280;4073;42.626;25.386;2022-07-04T08:12:45;97339.47;;;33.30;32.05
8061;BME280;4073;42.626;25.386;2022-07-04T08:15:11;97332.50;;;33.18;33.16
8061;BME280;4073;42.626;25.386;2022-07-04T08:17:36;97333.34;;;33.12;32.61
8061;BME280;4073;42.626;25.386;2022-07-04T08:20:05;97341.06;;;33.27;32.40
8061;BME280;4073;42.626;25.386;2022-07-04T08:22:31;97332.50;;;33.18;32.01
8061;BME280;4073;42.626;25.386;2022-07-04T08:24:56;97331.91;;;33.00;32.06
8061;BME280;4073;42.626;25.386;2022-07-04T08:27:22;97317.09;;;32.84;32.62
8061;BME280;4073;42.626;25.386;2022-07-04T08:29:48;97339.22;;;32.84;32.57
8061;BME280;4073;42.626;25.386;2022-07-04T08:32:14;97321.63;;;32.64;32.88
8061;BME280;4073;42.626;25.386;2022-07-04T08:34:39;97331.88;;;33.04;33.32
8061;BME280;4073;42.626;25.386;2022-07-04T08:37:05;97336.56;;;33.40;32.10
8061;BME280;4073;42.626;25.386;2022-07-04T08:39:31;97332.97;;;33.43;31.52
8061;BME280;4073;42.626;25.386;2022-07-04T08:42:02;97332.75;;;33.57;31.73
8061;BME280;4073;42.626;25.386;2022-07-04T08:44:30;97327.88;;;33.95;31.28
8061;BME280;4073;42.626;25.386;2022-07-04T08:46:56;97334.06;;;34.02;30.55
8061;BME280;4073;42.626;25.386;2022-07-04T08:49:24;97345.09;;;33.53;30.85
8061;BME280;4073;42.626;25.386;2022-07-04T08:52:01;97344.44;;;33.45;30.62
8061;BME280;4073;42.626;25.386;2022-07-04T08:54:30;97344.56;;;33.35;30.25
8061;BME280;4073;42.626;25.386;2022-07-04T08:57:14;97330.03;;;33.24;29.54
8061;BME280;4073;42.626;25.386;2022-07-04T08:59:59;97330.72;;;33.35;29.95
8061;BME280;4073;42.626;25.386;2022-07-04T09:02:27;97341.31;;;33.40;30.09
8061;BME280;4073;42.626;25.386;2022-07-04T09:04:53;97331.91;;;33.64;29.67
8061;BME280;4073;42.626;25.386;2022-07-04T09:07:18;97340.63;;;33.62;29.82
8061;BME280;4073;42.626;25.386;2022-07-04T09:09:44;97344.84;;;33.70;29.48
8061;BME280;4073;42.626;25.386;2022-07-04T09:12:11;97334.97;;;33.69;29.75
8061;BME280;4073;42.626;25.386;2022-07-04T09:14:37;97331.09;;;34.16;29.04
8061;BME280;4073;42.626;25.386;2022-07-04T09:17:04;97333.56;;;34.34;28.13
8061;BME280;4073;42.626;25.386;2022-07-04T09:19:30;97325.91;;;34.42;28.17
8061;BME280;4073;42.626;25.386;2022-07-04T09:21:55;97319.53;;;34.45;28.42
8061;BME280;4073;42.626;25.386;2022-07-04T09:24:51;97321.91;;;34.19;28.53
8061;BME280;4073;42.626;25.386;2022-07-04T09:27:38;97321.97;;;33.93;28.43
8061;BME280;4073;42.626;25.386;2022-07-04T09:30:05;97321.25;;;34.12;28.69
8061;BME280;4073;42.626;25.386;2022-07-04T09:32:43;97314.19;;;34.54;28.25
8061;BME280;4073;42.626;25.386;2022-07-04T09:35:12;97306.94;;;34.79;28.01
8061;BME280;4073;42.626;25.386;2022-07-04T09:37:40;97323.53;;;34.86;27.39
8061;BME280;4073;42.626;25.386;2022-07-04T09:40:09;97327.63;;;34.55;28.26
8061;BME280;4073;42.626;25.386;2022-07-04T09:42:40;97315.66;;;34.39;28.15
8061;BME280;4073;42.626;25.386;2022-07-04T09:45:10;97315.75;;;34.08;28.42
8061;BME280;4073;42.626;25.386;2022-07-04T09:47:37;97319.06;;;34.23;28.48
8061;BME280;4073;42.626;25.386;2022-07-04T09:50:10;97306.13;;;34.40;28.04
8061;BME280;4073;42.626;25.386;2022-07-04T09:52:55;97295.84;;;34.60;28.01
8061;BME280;4073;42.626;25.386;2022-07-04T09:55:22;97296.97;;;34.62;28.25
8061;BME280;4073;42.626;25.386;2022-07-04T09:57:48;97311.97;;;34.22;28.22
8061;BME280;4073;42.626;25.386;2022-07-04T10:00:22;97298.25;;;34.11;28.30
8061;BME280;4073;42.626;25.386;2022-07-04T10:02:49;97304.91;;;34.17;28.47
8061;BME280;4073;42.626;25.386;2022-07-04T10:05:28;97308.56;;;34.11;28.95
8061;BME280;4073;42.626;25.386;2022-07-04T10:07:56;97309.41;;;34.31;28.52
8061;BME280;4073;42.626;25.386;2022-07-04T10:10:27;97308.53;;;34.14;28.77
8061;BME280;4073;42.626;25.386;2022-07-04T10:13:13;97304.25;;;34.10;29.18
8061;BME280;4073;42.626;25.386;2022-07-04T10:15:41;97298.63;;;34.13;28.62
8061;BME280;4073;42.626;25.386;2022-07-04T10:18:07;97306.66;;;33.81;28.98
8061;BME280;4073;42.626;25.386;2022-07-04T10:20:34;97309.72;;;33.64;29.23
8061;BME280;4073;42.626;25.386;2022-07-04T10:23:01;97306.03;;;33.70;29.71
8061;BME280;4073;42.626;25.386;2022-07-04T10:25:28;97307.66;;;33.94;29.56
8061;BME280;4073;42.626;25.386;2022-07-04T10:27:54;97303.75;;;33.92;28.34
8061;BME280;4073;42.626;25.386;2022-07-04T10:30:38;97286.59;;;33.74;29.26
8061;BME280;4073;42.626;25.386;2022-07-04T10:33:07;97295.31;;;33.72;29.35
8061;BME280;4073;42.626;25.386;2022-07-04T10:36:15;97288.56;;;33.73;29.06
8061;BME280;4073;42.626;25.386;2022-07-04T10:38:56;97287.44;;;33.71;29.37
8061;BME280;4073;42.626;25.386;2022-07-04T10:41:24;97282.66;;;33.98;29.54
8061;BME280;4073;42.626;25.386;2022-07-04T10:43:53;97282.50;;;34.28;28.58
8061;BME280;4073;42.626;25.386;2022-07-04T10:46:36;97280.84;;;34.34;28.25
8061;BME280;4073;42.626;25.386;2022-07-04T10:49:08;97282.44;;;34.55;28.55
8061;BME280;4073;42.626;25.386;2022-07-04T10:52:07;97283.25;;;34.75;28.06
8061;BME280;4073;42.626;25.386;2022-07-04T10:54:36;97272.91;;;34.75;28.20
8061;BME280;4073;42.626;25.386;2022-07-04T10:59:41;97263.09;;;35.10;27.85
8061;BME280;4073;42.626;25.386;2022-07-04T11:04:50;97264.91;;;34.38;28.08
8061;BME280;4073;42.626;25.386;2022-07-04T11:07:17;97258.00;;;34.89;28.11
8061;BME280;4073;42.626;25.386;2022-07-04T11:09:43;97254.22;;;34.99;27.71
8061;BME280;4073;42.626;25.386;2022-07-04T11:12:10;97253.66;;;35.43;27.18
8061;BME280;4073;42.626;25.386;2022-07-04T11:14:46;97255.44;;;35.85;27.21
8061;BME280;4073;42.626;25.386;2022-07-04T11:17:27;97252.34;;;35.63;26.63
8061;BME280;4073;42.626;25.386;2022-07-04T11:20:03;97253.75;;;35.20;27.25
8061;BME280;4073;42.626;25.386;2022-07-04T11:22:30;97259.28;;;34.84;27.69
8061;BME280;4073;42.626;25.386;2022-07-04T11:24:56;97256.63;;;34.58;27.94
8061;BME280;4073;42.626;25.386;2022-07-04T11:27:23;97245.56;;;34.74;28.01
8061;BME280;4073;42.626;25.386;2022-07-04T11:29:53;97242.34;;;35.14;28.04
8061;BME280;4073;42.626;25.386;2022-07-04T11:32:20;97241.25;;;35.28;27.54
8061;BME280;4073;42.626;25.386;2022-07-04T11:34:45;97241.50;;;35.17;28.01
8061;BME280;4073;42.626;25.386;2022-07-04T11:37:12;97239.75;;;35.07;27.74
8061;BME280;4073;42.626;25.386;2022-07-04T11:39:38;97238.22;;;34.64;28.34
8061;BME280;4073;42.626;25.386;2022-07-04T11:42:03;97223.72;;;34.76;28.23
8061;BME280;4073;42.626;25.386;2022-07-04T11:44:47;97231.25;;;34.75;28.91
8061;BME280;4073;42.626;25.386;2022-07-04T11:47:36;97238.22;;;34.64;28.47
8061;BME280;4073;42.626;25.386;2022-07-04T11:55:03;97232.34;;;34.42;28.72
8061;BME280;4073;42.626;25.386;2022-07-04T11:57:43;97213.69;;;34.19;29.00
8061;BME280;4073;42.626;25.386;2022-07-04T12:00:11;97228.56;;;34.52;28.75
8061;BME280;4073;42.626;25.386;2022-07-04T12:02:37;97231.84;;;34.47;28.06
8061;BME280;4073;42.626;25.386;2022-07-04T12:05:06;97220.78;;;34.44;28.65
8061;BME280;4073;42.626;25.386;2022-07-04T12:07:37;97224.59;;;33.84;28.54
8061;BME280;4073;42.626;25.386;2022-07-04T12:10:23;97226.09;;;33.92;27.55
8061;BME280;4073;42.626;25.386;2022-07-04T12:13:03;97220.88;;;34.40;27.65
8061;BME280;4073;42.626;25.386;2022-07-04T12:15:43;97230.75;;;34.41;27.06
8061;BME280;4073;42.626;25.386;2022-07-04T12:18:35;97230.19;;;34.50;26.57
8061;BME280;4073;42.626;25.386;2022-07-04T12:21:15;97241.81;;;34.45;26.36
8061;BME280;4073;42.626;25.386;2022-07-04T12:23:51;97238.69;;;33.96;26.74
8061;BME280;4073;42.626;25.386;2022-07-04T12:26:16;97232.84;;;33.91;26.87
8061;BME280;4073;42.626;25.386;2022-07-04T12:28:42;97226.13;;;34.11;27.10
8061;BME280;4073;42.626;25.386;2022-07-04T12:31:07;97230.75;;;34.18;26.95
8061;BME280;4073;42.626;25.386;2022-07-04T12:33:33;97220.25;;;34.29;27.44
8061;BME280;4073;42.626;25.386;2022-07-04T12:36:00;97227.50;;;34.23;27.60
8061;BME280;4073;42.626;25.386;2022-07-04T12:43:23;97219.78;;;34.54;26.27
8061;BME280;4073;42.626;25.386;2022-07-04T12:45:52;97216.44;;;34.43;26.37
8061;BME280;4073;42.626;25.386;2022-07-04T12:48:28;97207.03;;;34.37;26.57
8061;BME280;4073;42.626;25.386;2022-07-04T12:50:55;97195.28;;;34.29;26.91
8061;BME280;4073;42.626;25.386;2022-07-04T12:53:37;97205.53;;;34.32;27.30
8061;BME280;4073;42.626;25.386;2022-07-04T12:56:03;97199.13;;;34.35;26.79
8061;BME280;4073;42.626;25.386;2022-07-04T12:58:28;97201.19;;;34.31;26.96
8061;BME280;4073;42.626;25.386;2022-07-04T13:00:54;97197.94;;;34.36;26.91
8061;BME280;4073;42.626;25.386;2022-07-04T13:03:20;97188.66;;;34.23;27.31
8061;BME280;4073;42.626;25.386;2022-07-04T13:05:45;97197.38;;;34.02;27.51
8061;BME280;4073;42.626;25.386;2022-07-04T13:08:11;97191.25;;;33.91;27.65
8061;BME280;4073;42.626;25.386;2022-07-04T13:10:37;97205.34;;;34.00;27.63
8061;BME280;4073;42.626;25.386;2022-07-04T13:13:02;97190.56;;;34.06;27.24
8061;BME280;4073;42.626;25.386;2022-07-04T13:15:28;97188.69;;;34.00;27.31
8061;BME280;4073;42.626;25.386;2022-07-04T13:17:54;97196.84;;;34.10;27.29
8061;BME280;4073;42.626;25.386;2022-07-04T13:20:19;97194.34;;;34.16;26.79
8061;BME280;4073;42.626;25.386;2022-07-04T13:22:45;97206.53;;;34.22;27.29
8061;BME280;4073;42.626;25.386;2022-07-04T13:25:10;97202.66;;;34.16;26.95
8061;BME280;4073;42.626;25.386;2022-07-04T13:27:36;97202.38;;;34.10;26.87